Terminal Aerodrome Forecast
Issued by NWS

Home | Current Version | Previous Version | Text Only | Print | Product List | Glossary On
Versions: 1 2 3 4 5 6 7 8 9 10 11 12 13 14 15 16 17 18 19 20 21 22 23 24 25 26 27 28 29 30 31
000
FTUS43 KPAH 240000 AAA
TAFOWB
TAF AMD
KOWB 240031Z 2401/2424 36005KT P6SM VCSH SCT020 BKN035
      TEMPO 2401/2402 -SHRA BKN020
     FM240200 35005KT P6SM SCT040
     FM241500 03009KT P6SM SCT050=

USA.gov is the U.S. government's official web portal to all federal, state and local government web resources and services.